Time;durP1;ratioP1;P1;durP2;ratioP2;P2;SDS_P1;SDS_P2;PMS_P1;PMS_P2;Temp;Humidity;BMP_temperature;BMP_pressure;BME280_temperature;BME280_humidity;BME280_pressure;Samples;Min_cycle;Max_cycle;Signal;HPM_P1;HPM_P2
2022/01/28 00:01:07;;;;;;;3.30;0.93;;;5.80;99.90;;;;;;5053923;28;20479;-49
2022/01/28 00:03:36;;;;;;;3.22;1.15;;;5.80;99.90;;;;;;5055366;28;20021;-48
2022/01/28 00:06:03;;;;;;;4.88;1.00;;;5.90;99.90;;;;;;5054827;28;20024;-50
2022/01/28 00:08:29;;;;;;;5.35;1.10;;;5.80;99.90;;;;;;5054143;28;20057;-48
2022/01/28 00:10:55;;;;;;;2.47;1.08;;;5.80;99.90;;;;;;5053844;28;20037;-48
2022/01/28 00:13:25;;;;;;;5.78;1.15;;;5.70;99.90;;;;;;5053915;28;20029;-48
2022/01/28 00:38:24;;;;;;;11.98;3.25;;;5.50;99.90;;;;;;5055051;28;20027;-48
2022/01/28 00:40:49;;;;;;;16.45;6.88;;;5.50;99.90;;;;;;5054824;28;20028;-48
2022/01/28 00:43:15;;;;;;;6.15;2.65;;;5.50;99.90;;;;;;5053201;28;20021;-49
2022/01/28 00:45:41;;;;;;;3.88;1.45;;;5.40;99.90;;;;;;5053583;28;20017;-48
2022/01/28 00:48:06;;;;;;;4.80;1.42;;;5.40;99.90;;;;;;5053121;28;20037;-49
2022/01/28 00:50:32;;;;;;;1.83;1.23;;;5.40;99.90;;;;;;5053052;28;20028;-50
2022/01/28 00:56:19;;;;;;;3.75;1.60;;;5.50;99.90;;;;;;5054513;28;20027;-49
2022/01/28 00:58:45;;;;;;;3.83;1.73;;;5.60;99.90;;;;;;5054325;28;20025;-52
2022/01/28 01:01:11;;;;;;;5.47;2.20;;;5.70;99.90;;;;;;5054315;28;20079;-50
2022/01/28 01:03:36;;;;;;;6.25;1.88;;;5.70;99.90;;;;;;5053654;28;20027;-48
2022/01/28 01:06:02;;;;;;;6.45;1.92;;;5.70;99.90;;;;;;5052801;28;20036;-50
2022/01/28 01:08:27;;;;;;;5.93;2.08;;;5.70;99.90;;;;;;5052678;28;20021;-48
2022/01/28 01:10:54;;;;;;;6.75;1.92;;;5.90;99.90;;;;;;5052644;28;20082;-51
2022/01/28 01:13:20;;;;;;;6.97;1.70;;;5.90;99.90;;;;;;5053693;28;20029;-53
2022/01/28 01:15:51;;;;;;;9.10;3.20;;;6.00;99.90;;;;;;5052868;28;20507;-51
2022/01/28 01:23:16;;;;;;;7.03;2.00;;;6.30;99.90;;;;;;5053773;28;20147;-52
2022/01/28 01:25:51;;;;;;;3.53;1.42;;;6.30;99.90;;;;;;5053712;28;20021;-55
2022/01/28 01:28:19;;;;;;;7.35;1.90;;;6.30;99.90;;;;;;5053751;28;20018;-52
2022/01/28 01:30:46;;;;;;;5.15;1.67;;;6.20;99.90;;;;;;5053677;28;20052;-50
2022/01/28 01:33:13;;;;;;;6.78;2.13;;;6.10;99.90;;;;;;5053664;28;20036;-52
2022/01/28 01:35:40;;;;;;;5.38;1.88;;;6.00;99.90;;;;;;5052382;28;20052;-51
2022/01/28 01:38:07;;;;;;;7.95;3.05;;;5.90;99.90;;;;;;5053631;28;20086;-54
2022/01/28 01:40:41;;;;;;;7.75;2.55;;;5.90;99.90;;;;;;5052173;28;20036;-50
2022/01/28 01:43:13;;;;;;;9.02;2.28;;;5.90;99.90;;;;;;5052206;28;20063;-54
2022/01/28 01:54:03;;;;;;;5.45;1.55;;;5.80;99.90;;;;;;5053853;28;20055;-52
2022/01/28 01:56:30;;;;;;;7.15;2.10;;;5.80;99.90;;;;;;5053101;28;20086;-50
2022/01/28 01:58:57;;;;;;;10.05;2.75;;;5.80;99.90;;;;;;5053267;28;20074;-49
2022/01/28 02:01:23;;;;;;;9.57;1.98;;;5.70;99.90;;;;;;5053211;28;20040;-48
2022/01/28 02:03:49;;;;;;;6.35;1.92;;;5.70;99.90;;;;;;5053110;28;20021;-51
2022/01/28 02:06:18;;;;;;;7.60;2.30;;;5.70;99.90;;;;;;5051945;28;20021;-49
2022/01/28 02:08:44;;;;;;;7.93;1.48;;;5.70;99.90;;;;;;5053127;28;20471;-52
2022/01/28 02:11:10;;;;;;;7.88;1.70;;;5.70;99.90;;;;;;5053172;28;20064;-49
2022/01/28 02:13:38;;;;;;;10.02;1.98;;;5.60;99.90;;;;;;5051871;28;20099;-48
2022/01/28 02:16:04;;;;;;;2.53;1.63;;;5.60;99.90;;;;;;5051899;28;20035;-50
2022/01/28 02:18:30;;;;;;;10.43;1.45;;;5.50;99.90;;;;;;5051713;28;20025;-49
2022/01/28 02:21:03;;;;;;;7.38;1.90;;;5.70;99.90;;;;;;5051964;28;20079;-49
2022/01/28 02:23:29;;;;;;;18.50;3.03;;;5.90;99.90;;;;;;5053626;28;20048;-48
2022/01/28 02:25:57;;;;;;;5.10;1.77;;;5.90;99.90;;;;;;5051637;28;20080;-48
2022/01/28 02:28:25;;;;;;;7.13;1.80;;;5.90;99.90;;;;;;5051974;28;20021;-48
2022/01/28 02:30:51;;;;;;;10.77;2.45;;;6.00;99.90;;;;;;5051655;28;20056;-50
2022/01/28 02:33:20;;;;;;;5.47;1.67;;;6.00;99.90;;;;;;5053186;28;20104;-50
2022/01/28 02:35:47;;;;;;;5.80;1.67;;;6.10;99.90;;;;;;5052942;28;20040;-48
2022/01/28 02:41:39;;;;;;;10.57;1.60;;;6.30;99.90;;;;;;5052909;28;20032;-49
2022/01/28 02:44:23;;;;;;;7.20;1.90;;;6.30;99.90;;;;;;5051606;28;20025;-51
2022/01/28 02:46:58;;;;;;;8.50;1.73;;;6.40;99.90;;;;;;5051533;28;20025;-49
2022/01/28 02:49:27;;;;;;;15.40;2.10;;;6.40;99.90;;;;;;5051484;28;20025;-49
2022/01/28 02:51:54;;;;;;;4.40;1.60;;;6.50;99.90;;;;;;5053209;28;20486;-51
2022/01/28 02:54:19;;;;;;;3.15;1.05;;;6.60;99.90;;;;;;5051540;28;20032;-48
2022/01/28 02:56:55;;;;;;;16.73;1.27;;;6.60;99.90;;;;;;5051362;28;20029;-51
2022/01/28 02:59:21;;;;;;;5.07;0.70;;;6.60;99.90;;;;;;5052606;28;20032;-51
2022/01/28 03:01:47;;;;;;;5.60;0.63;;;6.70;99.90;;;;;;5052470;28;20051;-52
2022/01/28 03:04:28;;;;;;;1.42;0.70;;;6.60;99.90;;;;;;5051378;28;20021;-52
2022/01/28 03:06:54;;;;;;;;;;;6.60;99.90;;;;;;5053267;28;20088;-51
2022/01/28 03:09:21;;;;;;;3.53;0.73;;;6.60;99.90;;;;;;5054043;28;19912;-52
2022/01/28 03:12:00;;;;;;;4.50;0.68;;;6.60;99.90;;;;;;5055273;28;20033;-50
2022/01/28 03:18:09;;;;;;;;;;;6.30;99.90;;;;;;5056874;28;20021;-50
2022/01/28 03:19:53;;;;;;;3.13;0.50;;;6.30;99.90;;;;;;5055402;28;19904;-49
2022/01/28 03:22:19;;;;;;;6.43;0.80;;;6.30;99.90;;;;;;5056244;28;20075;-48
2022/01/28 03:24:50;;;;;;;2.15;0.50;;;6.30;99.90;;;;;;5055918;28;20021;-49
2022/01/28 03:27:28;;;;;;;2.75;0.82;;;6.20;99.90;;;;;;5055628;28;20024;-49
2022/01/28 03:29:54;;;;;;;2.13;0.70;;;6.20;99.90;;;;;;5055849;28;20033;-48
2022/01/28 03:32:20;;;;;;;1.52;0.60;;;6.10;99.90;;;;;;5055838;28;20033;-48
2022/01/28 03:34:45;;;;;;;4.45;1.35;;;6.10;99.90;;;;;;5054877;28;20017;-49
2022/01/28 03:37:12;;;;;;;3.08;0.60;;;6.00;99.90;;;;;;5055720;28;20021;-48
2022/01/28 03:39:37;;;;;;;3.50;0.73;;;6.00;99.90;;;;;;5054804;28;20025;-48
2022/01/28 03:42:04;;;;;;;5.55;0.73;;;6.00;99.90;;;;;;5054379;28;20029;-51
2022/01/28 03:44:30;;;;;;;5.00;0.85;;;5.90;99.90;;;;;;5055271;28;20024;-50
2022/01/28 03:46:55;;;;;;;2.65;0.88;;;5.80;99.90;;;;;;5055524;28;20383;-50
2022/01/28 03:49:21;;;;;;;2.85;0.60;;;5.80;99.90;;;;;;5054610;28;20039;-50
2022/01/28 03:51:47;;;;;;;2.88;0.75;;;5.70;99.90;;;;;;5054485;28;20032;-48
2022/01/28 03:54:12;;;;;;;4.15;1.00;;;5.60;99.90;;;;;;5055428;28;20025;-48
2022/01/28 03:56:38;;;;;;;3.45;0.85;;;5.60;99.90;;;;;;5054141;28;20071;-48
2022/01/28 03:59:03;;;;;;;5.10;1.35;;;5.60;99.90;;;;;;5054275;28;20125;-48
2022/01/28 04:01:34;;;;;;;8.75;2.00;;;5.70;99.90;;;;;;5054024;28;20033;-49
2022/01/28 04:04:32;;;;;;;4.57;1.35;;;5.70;99.90;;;;;;5054037;28;20043;-48
2022/01/28 04:12:13;;;;;;;4.95;1.50;;;5.80;99.90;;;;;;5055618;28;20079;-50
2022/01/28 04:14:49;;;;;;;10.85;1.20;;;5.70;99.90;;;;;;5053882;28;20029;-51
2022/01/28 04:17:21;;;;;;;11.20;1.10;;;5.70;99.90;;;;;;5054802;28;20057;-53
2022/01/28 04:19:49;;;;;;;9.52;2.20;;;5.70;99.90;;;;;;5054625;28;20033;-50
2022/01/28 04:22:14;;;;;;;8.57;1.88;;;5.70;99.90;;;;;;5055025;28;20032;-49
2022/01/28 04:24:40;;;;;;;15.90;3.22;;;5.80;99.90;;;;;;5053614;28;20025;-49
2022/01/28 04:27:06;;;;;;;7.45;2.35;;;5.90;99.90;;;;;;5053692;28;20067;-51
2022/01/28 04:29:31;;;;;;;7.55;1.83;;;6.10;99.90;;;;;;5054891;28;20021;-49
2022/01/28 04:31:57;;;;;;;12.35;1.95;;;6.20;99.90;;;;;;5053568;28;20094;-53
2022/01/28 04:34:24;;;;;;;12.80;1.92;;;6.40;99.90;;;;;;5054872;28;20029;-51
2022/01/28 04:39:26;;;;;;;10.27;2.05;;;6.50;99.90;;;;;;5054796;28;20032;-48
2022/01/28 04:47:24;;;;;;;6.93;1.42;;;6.50;99.90;;;;;;5062728;28;20060;-52
2022/01/28 05:05:51;;;;;;;8.45;1.92;;;6.10;99.90;;;;;;5054370;28;20054;-49
2022/01/28 05:26:41;;;;;;;8.45;2.75;;;6.00;99.90;;;;;;5053992;28;20071;-49
2022/01/28 05:29:07;;;;;;;12.63;4.43;;;6.00;99.90;;;;;;5052364;28;20084;-49
2022/01/28 05:31:33;;;;;;;8.88;2.88;;;5.90;99.90;;;;;;5053257;28;20025;-49
2022/01/28 05:33:58;;;;;;;12.70;2.83;;;5.90;99.90;;;;;;5052362;28;20036;-52
2022/01/28 05:36:24;;;;;;;10.75;2.03;;;5.70;99.90;;;;;;5052351;28;20025;-53
2022/01/28 05:38:50;;;;;;;4.60;2.63;;;5.50;99.90;;;;;;5053432;28;20109;-48
2022/01/28 05:41:16;;;;;;;6.65;2.13;;;5.50;99.90;;;;;;5053685;28;20029;-48
2022/01/28 05:43:41;;;;;;;4.10;1.80;;;5.60;99.90;;;;;;5053707;28;20115;-50
2022/01/28 05:46:10;;;;;;;3.70;1.60;;;5.60;99.90;;;;;;5053454;28;20076;-52
2022/01/28 05:48:36;;;;;;;6.32;1.98;;;5.70;99.90;;;;;;5053885;28;20056;-54
2022/01/28 05:51:01;;;;;;;5.03;1.55;;;5.80;99.90;;;;;;5053376;28;20029;-51
2022/01/28 05:53:27;;;;;;;8.55;2.47;;;5.80;99.90;;;;;;5053629;28;20497;-53
2022/01/28 05:55:53;;;;;;;9.32;1.48;;;5.80;99.90;;;;;;5052092;28;20029;-49
2022/01/28 05:58:19;;;;;;;1.55;0.95;;;5.80;99.90;;;;;;5053215;28;20503;-52
2022/01/28 06:00:44;;;;;;;6.88;2.05;;;5.90;99.90;;;;;;5052853;28;20082;-53
2022/01/28 06:03:10;;;;;;;5.80;1.70;;;6.00;99.90;;;;;;5053223;28;20107;-52
2022/01/28 06:05:36;;;;;;;5.88;1.48;;;6.00;99.90;;;;;;5053198;28;20024;-49
2022/01/28 06:08:02;;;;;;;12.73;2.38;;;5.90;99.90;;;;;;5053113;28;20021;-51
2022/01/28 06:10:27;;;;;;;3.08;1.17;;;5.90;99.90;;;;;;5053145;28;20099;-48
2022/01/28 06:12:53;;;;;;;1.70;0.88;;;6.10;99.90;;;;;;5053091;28;20059;-48
2022/01/28 06:15:19;;;;;;;4.43;0.75;;;6.10;99.90;;;;;;5053145;28;20052;-48
2022/01/28 06:17:45;;;;;;;8.38;2.38;;;6.10;99.90;;;;;;5053495;28;20031;-48
2022/01/28 06:20:13;;;;;;;2.65;1.30;;;6.10;99.90;;;;;;5052994;28;20487;-48
2022/01/28 06:22:44;;;;;;;3.53;1.23;;;6.10;99.90;;;;;;5053049;28;20075;-48
2022/01/28 06:25:13;;;;;;;10.43;1.25;;;6.20;99.90;;;;;;5053037;28;20020;-48
2022/01/28 06:27:39;;;;;;;7.75;2.35;;;6.10;99.90;;;;;;5052919;28;20045;-48
2022/01/28 06:30:06;;;;;;;11.00;3.65;;;5.90;99.90;;;;;;5051761;28;20068;-50
2022/01/28 06:32:33;;;;;;;12.85;4.15;;;5.70;99.90;;;;;;5052511;28;20031;-48
2022/01/28 06:35:07;;;;;;;17.98;5.82;;;5.50;99.90;;;;;;5052966;28;20480;-49
2022/01/28 06:37:37;;;;;;;19.80;6.80;;;5.30;99.90;;;;;;5052153;28;20479;-48
2022/01/28 06:40:06;;;;;;;30.65;9.52;;;5.10;99.90;;;;;;5051617;28;20025;-50
2022/01/28 06:42:32;;;;;;;24.73;7.25;;;4.90;99.90;;;;;;5051976;28;20053;-49
2022/01/28 06:44:57;;;;;;;34.88;11.60;;;4.90;99.90;;;;;;5056687;28;20071;-48
2022/01/28 06:47:23;;;;;;;13.93;4.20;;;4.90;99.90;;;;;;5055370;28;20048;-48
2022/01/28 06:49:49;;;;;;;26.45;6.47;;;5.00;99.90;;;;;;5056860;28;20052;-49
2022/01/28 06:52:14;;;;;;;18.63;5.20;;;5.00;99.90;;;;;;5056624;28;20036;-48
2022/01/28 06:54:40;;;;;;;9.38;2.45;;;5.00;99.90;;;;;;5056544;28;20033;-50
2022/01/28 06:57:06;;;;;;;6.78;2.15;;;5.00;99.90;;;;;;5055234;28;20544;-48
2022/01/28 06:59:32;;;;;;;15.82;4.60;;;5.10;99.90;;;;;;5055144;28;20024;-48
2022/01/28 07:01:57;;;;;;;8.98;3.47;;;5.10;99.90;;;;;;5056616;28;20479;-48
2022/01/28 07:04:23;;;;;;;12.05;3.20;;;5.10;99.90;;;;;;5055263;28;20021;-48
2022/01/28 07:06:48;;;;;;;10.02;3.55;;;5.10;99.90;;;;;;5055406;28;20021;-49
2022/01/28 07:09:15;;;;;;;18.95;3.28;;;5.20;99.90;;;;;;5056278;28;20020;-50
2022/01/28 07:11:43;;;;;;;7.95;2.55;;;5.20;99.90;;;;;;5055339;28;20060;-50
2022/01/28 07:14:09;;;;;;;13.80;4.32;;;5.40;99.90;;;;;;5056498;28;20104;-49
2022/01/28 07:16:35;;;;;;;10.32;2.85;;;5.40;99.90;;;;;;5055346;28;20029;-49
2022/01/28 07:19:02;;;;;;;8.73;2.92;;;5.40;99.90;;;;;;5054837;28;20107;-53
2022/01/28 07:21:28;;;;;;;15.40;2.97;;;5.40;99.90;;;;;;5056028;28;20029;-50
2022/01/28 07:23:54;;;;;;;18.77;4.20;;;5.50;99.90;;;;;;5054771;28;20084;-51
2022/01/28 07:26:20;;;;;;;9.70;2.58;;;5.50;99.90;;;;;;5054692;28;20047;-52
2022/01/28 07:28:46;;;;;;;12.20;2.97;;;5.50;99.90;;;;;;5055821;28;20475;-50
2022/01/28 07:31:14;;;;;;;12.57;3.85;;;5.60;99.90;;;;;;5054597;28;20032;-48
2022/01/28 07:33:41;;;;;;;6.13;2.50;;;5.60;99.90;;;;;;5054586;28;20028;-53
2022/01/28 07:36:07;;;;;;;5.30;1.70;;;5.60;99.90;;;;;;5054488;28;20032;-51
2022/01/28 07:38:32;;;;;;;4.88;1.52;;;5.70;99.90;;;;;;5056165;28;20025;-53
2022/01/28 07:41:01;;;;;;;10.77;1.83;;;5.80;99.90;;;;;;5055904;28;20052;-52
2022/01/28 07:43:27;;;;;;;7.00;1.98;;;5.90;99.90;;;;;;5055716;28;20167;-51
2022/01/28 07:45:53;;;;;;;9.75;2.95;;;5.90;99.90;;;;;;5055664;28;20025;-55
2022/01/28 07:48:18;;;;;;;6.43;1.55;;;6.00;99.90;;;;;;5054351;28;20017;-48
2022/01/28 07:50:44;;;;;;;5.32;1.75;;;6.00;99.90;;;;;;5055545;28;20029;-48
2022/01/28 07:53:14;;;;;;;11.10;2.30;;;6.20;99.90;;;;;;5055265;28;20036;-48
2022/01/28 07:55:40;;;;;;;7.18;2.10;;;6.30;99.90;;;;;;5055121;28;20025;-50
2022/01/28 07:58:05;;;;;;;10.63;2.55;;;6.30;99.90;;;;;;5055873;28;20080;-49
2022/01/28 08:00:31;;;;;;;7.75;2.03;;;6.30;99.90;;;;;;5055333;28;20037;-49
2022/01/28 08:02:57;;;;;;;10.70;1.85;;;6.20;99.90;;;;;;5053981;28;20021;-49
2022/01/28 08:05:22;;;;;;;11.23;2.25;;;6.10;99.90;;;;;;5054004;28;20017;-51
2022/01/28 08:07:48;;;;;;;11.07;2.72;;;6.10;99.90;;;;;;5054642;28;20036;-50
2022/01/28 08:10:17;;;;;;;10.35;2.35;;;6.40;99.90;;;;;;5054264;28;20380;-49
2022/01/28 08:12:47;;;;;;;10.35;1.63;;;7.20;99.90;;;;;;5053915;28;20056;-48
2022/01/28 08:15:14;;;;;;;18.67;3.05;;;7.80;99.90;;;;;;5054157;28;20052;-48
2022/01/28 08:17:40;;;;;;;6.30;2.03;;;8.40;99.90;;;;;;5055269;28;20104;-48
2022/01/28 08:20:06;;;;;;;15.25;3.30;;;8.60;99.90;;;;;;5054054;28;20113;-47
2022/01/28 08:22:32;;;;;;;9.50;3.22;;;8.40;99.90;;;;;;5054780;28;20025;-50
2022/01/28 08:24:57;;;;;;;7.60;2.30;;;8.30;99.90;;;;;;5055234;28;20032;-48
2022/01/28 08:27:23;;;;;;;15.75;4.25;;;8.10;99.90;;;;;;5053519;28;20028;-47
2022/01/28 08:29:48;;;;;;;10.68;2.50;;;7.90;99.90;;;;;;5053556;28;20028;-47
2022/01/28 08:32:14;;;;;;;9.40;2.63;;;8.00;99.90;;;;;;5054569;28;20070;-48
2022/01/28 08:34:40;;;;;;;12.13;2.50;;;8.80;99.90;;;;;;5053514;28;20407;-48
2022/01/28 08:37:06;;;;;;;8.90;2.28;;;9.90;99.90;;;;;;5053729;28;20025;-49
2022/01/28 08:39:34;;;;;;;15.88;4.47;;;11.10;99.90;;;;;;5054000;28;20044;-48
2022/01/28 08:41:59;;;;;;;13.02;4.55;;;12.10;99.90;;;;;;5053297;28;20033;-46
2022/01/28 08:44:26;;;;;;;11.35;2.25;;;12.90;99.90;;;;;;5053402;28;20054;-46
2022/01/28 08:46:51;;;;;;;7.53;2.75;;;13.60;99.90;;;;;;5053184;28;20053;-49
2022/01/28 08:49:17;;;;;;;9.70;2.20;;;14.30;99.90;;;;;;5054712;28;20044;-46
2022/01/28 08:51:44;;;;;;;13.60;4.75;;;14.80;99.90;;;;;;5054379;28;20106;-46
2022/01/28 08:54:10;;;;;;;9.48;2.13;;;15.10;99.90;;;;;;5053404;28;20023;-46
2022/01/28 08:56:36;;;;;;;9.68;2.78;;;15.40;99.90;;;;;;5054611;28;20025;-50
2022/01/28 08:59:01;;;;;;;8.25;2.67;;;15.90;99.90;;;;;;5052964;28;20029;-46
2022/01/28 09:01:28;;;;;;;9.35;2.63;;;16.10;99.90;;;;;;5053111;28;20064;-47
2022/01/28 09:03:54;;;;;;;14.20;4.03;;;16.30;99.90;;;;;;5052893;28;20029;-46
2022/01/28 09:06:20;;;;;;;8.60;2.70;;;16.40;99.90;;;;;;5053786;28;20017;-49
2022/01/28 09:08:47;;;;;;;12.40;2.67;;;17.00;99.90;;;;;;5054072;28;20032;-49
2022/01/28 09:14:04;;;;;;;11.07;2.25;;;17.60;99.90;;;;;;5068448;28;20026;-49
2022/01/28 09:16:30;;;;;;;12.60;3.15;;;17.90;99.90;;;;;;5054279;28;20025;-49
2022/01/28 09:18:56;;;;;;;12.48;2.70;;;17.90;99.70;;;;;;5052647;28;20021;-49
2022/01/28 09:21:21;;;;;;;10.38;2.83;;;17.70;99.90;;;;;;5053804;28;20033;-50
2022/01/28 09:23:47;;;;;;;12.55;3.22;;;18.50;98.70;;;;;;5052546;28;20123;-49
2022/01/28 09:26:13;;;;;;;26.27;6.63;;;18.30;98.10;;;;;;5054217;28;20024;-49
2022/01/28 09:28:40;;;;;;;18.17;6.35;;;18.50;97.50;;;;;;5053823;28;20082;-49
2022/01/28 09:31:06;;;;;;;12.82;4.65;;;18.60;96.20;;;;;;5052605;28;20059;-50
2022/01/28 09:33:32;;;;;;;11.80;4.18;;;19.10;95.90;;;;;;5052399;28;20056;-49
2022/01/28 09:35:57;;;;;;;10.43;3.20;;;18.60;96.30;;;;;;5052374;28;20025;-50
2022/01/28 09:38:23;;;;;;;6.28;2.13;;;18.40;95.70;;;;;;5052642;28;20025;-53
2022/01/28 09:40:50;;;;;;;10.65;3.78;;;18.90;95.70;;;;;;5052316;28;20025;-50
2022/01/28 09:43:16;;;;;;;10.55;2.90;;;19.00;96.00;;;;;;5053532;28;20408;-51
2022/01/28 09:45:47;;;;;;;9.27;2.72;;;18.90;95.10;;;;;;5053529;28;20021;-50
2022/01/28 09:48:12;;;;;;;14.98;3.72;;;18.40;94.40;;;;;;5053377;28;20056;-49
2022/01/28 09:50:38;;;;;;;10.75;2.67;;;17.30;96.20;;;;;;5053437;28;20056;-52
2022/01/28 09:53:03;;;;;;;9.50;3.78;;;16.00;96.40;;;;;;5052137;28;20071;-49
2022/01/28 09:55:29;;;;;;;14.52;3.20;;;14.80;99.00;;;;;;5053418;28;20032;-47
2022/01/28 09:57:59;;;;;;;11.63;2.45;;;14.20;99.90;;;;;;5052062;28;20071;-47
2022/01/28 10:00:27;;;;;;;12.07;2.30;;;13.60;99.90;;;;;;5051912;28;20061;-49
2022/01/28 10:02:54;;;;;;;11.70;2.35;;;13.30;99.90;;;;;;5052012;28;20537;-47
2022/01/28 10:05:27;;;;;;;7.85;1.80;;;12.90;99.90;;;;;;5053296;28;20021;-49
2022/01/28 10:08:00;;;;;;;10.20;2.25;;;12.80;99.90;;;;;;5052106;28;20029;-52
2022/01/28 10:10:26;;;;;;;12.23;2.28;;;12.60;99.90;;;;;;5053448;28;20017;-53
2022/01/28 10:13:16;;;;;;;7.35;2.08;;;12.30;99.90;;;;;;5051925;28;20494;-50
2022/01/28 10:16:00;;;;;;;7.95;2.03;;;12.30;99.90;;;;;;5053220;28;20052;-51
2022/01/28 10:18:36;;;;;;;9.38;1.92;;;12.30;99.90;;;;;;5055912;28;20076;-47
2022/01/28 10:21:13;;;;;;;10.55;2.13;;;12.10;99.90;;;;;;5057179;28;20036;-52
2022/01/28 10:23:38;;;;;;;15.90;2.20;;;12.10;99.90;;;;;;5057441;28;20353;-49
2022/01/28 10:26:04;;;;;;;13.88;2.00;;;12.20;99.90;;;;;;5055811;28;20039;-49
2022/01/28 10:28:29;;;;;;;13.93;3.95;;;12.20;99.90;;;;;;5056128;28;20025;-51
2022/01/28 10:30:55;;;;;;;12.65;2.45;;;12.00;99.90;;;;;;5055912;28;20025;-53
2022/01/28 10:33:24;;;;;;;6.43;2.33;;;11.80;99.90;;;;;;5055827;28;20156;-50
2022/01/28 10:35:58;;;;;;;8.35;2.90;;;11.70;99.90;;;;;;5055952;28;20025;-50
2022/01/28 10:38:42;;;;;;;27.83;3.42;;;11.40;99.90;;;;;;5055605;28;20174;-49
2022/01/28 10:41:09;;;;;;;9.40;1.90;;;11.00;99.90;;;;;;5055638;28;20025;-47
2022/01/28 10:43:43;;;;;;;12.43;2.60;;;11.00;99.90;;;;;;5056843;28;20021;-46
2022/01/28 10:46:09;;;;;;;13.05;2.13;;;10.70;99.90;;;;;;5057087;28;20047;-46
2022/01/28 10:48:54;;;;;;;13.45;1.70;;;10.80;99.90;;;;;;5055725;28;20074;-50
2022/01/28 10:51:22;;;;;;;7.93;1.95;;;10.80;99.90;;;;;;5057010;28;20028;-46
2022/01/28 10:54:23;;;;;;;10.07;2.13;;;11.00;99.90;;;;;;5055740;28;20028;-48
2022/01/28 10:56:54;;;;;;;11.68;1.70;;;11.10;99.90;;;;;;5044663;28;20029;-49
2022/01/28 10:59:23;;;;;;;10.50;1.90;;;11.30;99.90;;;;;;5056530;28;20110;-48
2022/01/28 11:01:49;;;;;;;4.60;1.50;;;11.20;99.90;;;;;;5055061;28;20033;-51
2022/01/28 11:04:17;;;;;;;8.57;1.48;;;11.10;99.90;;;;;;5056443;28;20078;-51
2022/01/28 11:06:44;;;;;;;8.15;1.70;;;11.10;99.90;;;;;;5055208;28;20025;-48
2022/01/28 11:09:12;;;;;;;7.43;1.60;;;11.00;99.90;;;;;;5055079;28;20438;-49
2022/01/28 11:11:38;;;;;;;10.40;1.67;;;11.00;99.90;;;;;;5055079;28;20021;-48
2022/01/28 11:14:21;;;;;;;12.18;1.95;;;11.10;99.90;;;;;;5055119;28;20029;-55
2022/01/28 11:16:47;;;;;;;11.23;1.60;;;11.20;99.90;;;;;;5055888;28;20025;-53
2022/01/28 11:19:15;;;;;;;5.70;2.17;;;11.20;99.90;;;;;;5054941;28;20032;-53
2022/01/28 11:21:53;;;;;;;15.73;1.80;;;11.10;99.90;;;;;;5054852;28;20033;-49
2022/01/28 11:24:43;;;;;;;11.45;2.33;;;10.90;99.90;;;;;;5056094;28;20025;-55
2022/01/28 11:27:21;;;;;;;7.05;1.88;;;10.60;99.90;;;;;;5054795;28;20017;-49
2022/01/28 11:29:47;;;;;;;11.20;2.08;;;10.40;99.90;;;;;;5055276;28;20128;-50
2022/01/28 11:32:17;;;;;;;8.85;1.67;;;10.30;99.90;;;;;;5054656;28;20025;-47
2022/01/28 11:34:58;;;;;;;9.13;1.90;;;10.10;99.90;;;;;;5055154;28;20028;-48
2022/01/28 11:37:27;;;;;;;12.20;1.83;;;10.10;99.90;;;;;;5055901;28;20104;-48
2022/01/28 11:39:53;;;;;;;13.07;2.08;;;10.00;99.90;;;;;;5054602;28;20104;-47
2022/01/28 11:42:29;;;;;;;8.75;1.67;;;9.90;99.90;;;;;;5055636;28;20140;-47
2022/01/28 11:45:00;;;;;;;9.05;1.98;;;9.70;99.90;;;;;;5056338;28;20013;-46
2022/01/28 11:47:29;;;;;;;10.63;1.75;;;9.80;99.90;;;;;;5055620;28;20028;-51
2022/01/28 11:50:03;;;;;;;10.95;2.00;;;9.80;99.90;;;;;;5055865;28;20021;-51
2022/01/28 11:52:32;;;;;;;6.35;1.70;;;9.70;99.90;;;;;;5056657;28;20025;-49
2022/01/28 11:58:20;;;;;;;16.40;2.75;;;9.60;99.90;;;;;;5055749;28;20058;-52
2022/01/28 12:00:53;;;;;;;17.38;3.17;;;9.50;99.90;;;;;;5055391;28;20029;-47
2022/01/28 12:03:22;;;;;;;11.05;2.10;;;9.50;99.90;;;;;;5056345;28;20013;-50
2022/01/28 12:05:49;;;;;;;12.88;3.30;;;9.40;99.90;;;;;;5054166;28;20028;-54
2022/01/28 12:08:17;;;;;;;18.00;2.80;;;9.50;99.90;;;;;;5055243;28;20025;-52
2022/01/28 12:10:45;;;;;;;15.60;1.98;;;9.40;99.90;;;;;;5055524;28;20037;-50
2022/01/28 12:13:15;;;;;;;11.25;1.85;;;9.40;99.90;;;;;;5055161;28;20024;-50
2022/01/28 12:16:09;;;;;;;12.40;1.90;;;9.30;99.90;;;;;;5055295;28;20025;-47
2022/01/28 12:18:43;;;;;;;17.67;1.95;;;9.30;99.90;;;;;;5053897;28;20028;-47
2022/01/28 12:21:13;;;;;;;15.10;2.40;;;9.00;99.90;;;;;;5053671;28;20052;-46
2022/01/28 12:23:38;;;;;;;14.57;2.58;;;9.10;99.90;;;;;;5053773;28;20479;-46
2022/01/28 12:26:04;;;;;;;11.85;2.58;;;9.00;99.90;;;;;;5054870;28;20031;-47
2022/01/28 12:28:33;;;;;;;17.60;2.05;;;9.00;99.90;;;;;;5054845;28;20044;-49
2022/01/28 12:31:01;;;;;;;15.15;3.20;;;9.00;99.90;;;;;;5053563;28;20033;-47
2022/01/28 12:33:51;;;;;;;18.35;3.17;;;9.10;99.90;;;;;;5053568;28;20021;-48
2022/01/28 12:36:21;;;;;;;12.95;2.90;;;9.10;99.90;;;;;;5055017;28;20086;-50
2022/01/28 12:39:08;;;;;;;11.63;2.55;;;9.10;99.90;;;;;;5054632;28;20021;-48
2022/01/28 12:41:42;;;;;;;20.85;2.90;;;9.10;99.90;;;;;;5053567;28;20049;-49
2022/01/28 12:44:14;;;;;;;7.70;1.80;;;9.40;99.90;;;;;;5054235;28;20021;-48
2022/01/28 12:47:05;;;;;;;16.08;2.63;;;9.80;99.90;;;;;;5053584;28;20107;-50
2022/01/28 12:49:33;;;;;;;12.43;2.10;;;9.90;99.90;;;;;;5054650;28;20037;-48
2022/01/28 12:52:01;;;;;;;9.23;1.80;;;10.10;99.90;;;;;;5054467;28;20406;-50
2022/01/28 12:54:45;;;;;;;23.73;2.50;;;10.20;99.90;;;;;;5054357;28;20029;-48
2022/01/28 12:57:17;;;;;;;13.23;1.83;;;10.30;99.90;;;;;;5053059;28;20020;-47
2022/01/28 12:59:45;;;;;;;16.58;2.83;;;10.40;99.90;;;;;;5054285;28;20021;-47
2022/01/28 13:02:11;;;;;;;16.27;2.58;;;10.50;99.90;;;;;;5052927;28;20025;-53
2022/01/28 13:04:52;;;;;;;7.13;1.85;;;10.60;99.90;;;;;;5052962;28;20103;-49
2022/01/28 13:09:57;;;;;;;11.95;1.95;;;10.50;99.90;;;;;;5054220;28;20017;-49
2022/01/28 13:12:30;;;;;;;13.27;1.92;;;10.60;99.90;;;;;;5054040;28;20025;-49
2022/01/28 13:15:08;;;;;;;9.05;1.90;;;10.60;99.90;;;;;;5054095;28;20025;-49
2022/01/28 13:17:34;;;;;;;18.48;3.50;;;10.50;99.90;;;;;;5053238;28;20123;-50
2022/01/28 13:20:05;;;;;;;16.65;2.30;;;10.30;99.90;;;;;;5053894;28;20219;-49
2022/01/28 13:22:32;;;;;;;14.07;2.30;;;10.10;99.90;;;;;;5054198;28;20021;-51
2022/01/28 13:24:59;;;;;;;8.52;1.88;;;10.10;99.90;;;;;;5052624;28;20484;-54
2022/01/28 13:27:42;;;;;;;15.07;2.33;;;9.80;99.90;;;;;;5053754;28;20067;-47
2022/01/28 13:30:16;;;;;;;14.43;2.03;;;9.80;99.90;;;;;;5052559;28;20053;-49
2022/01/28 13:32:49;;;;;;;15.25;2.25;;;9.80;99.90;;;;;;5052667;28;20024;-47
2022/01/28 13:35:35;;;;;;;11.57;2.22;;;10.00;99.90;;;;;;5053911;28;20055;-46
2022/01/28 13:38:06;;;;;;;16.75;2.35;;;10.10;99.90;;;;;;5052329;28;20395;-46
2022/01/28 13:40:36;;;;;;;8.90;1.55;;;10.10;99.90;;;;;;5053584;28;20029;-46
2022/01/28 13:43:11;;;;;;;8.30;2.03;;;10.20;99.90;;;;;;5053527;28;20029;-47
2022/01/28 13:45:42;;;;;;;12.70;2.15;;;10.30;99.90;;;;;;5053810;28;20092;-48
2022/01/28 13:48:15;;;;;;;14.70;2.17;;;10.30;99.90;;;;;;5053475;28;20021;-46
2022/01/28 13:50:43;;;;;;;13.70;2.20;;;10.30;99.90;;;;;;5052657;28;20278;-47
2022/01/28 13:55:49;;;;;;;12.63;2.92;;;10.30;99.90;;;;;;5053680;28;20111;-45
2022/01/28 13:58:15;;;;;;;14.20;1.98;;;10.20;99.90;;;;;;5052391;28;20028;-48
2022/01/28 14:00:45;;;;;;;12.05;2.17;;;10.00;99.90;;;;;;5053045;28;20033;-46
2022/01/28 14:03:26;;;;;;;7.13;1.38;;;10.00;99.90;;;;;;5052452;28;20049;-47
2022/01/28 14:06:00;;;;;;;15.18;2.50;;;9.90;99.90;;;;;;5052662;28;20048;-49
2022/01/28 14:08:53;;;;;;;12.70;2.42;;;9.80;99.90;;;;;;5053534;28;20104;-46
2022/01/28 14:11:30;;;;;;;18.65;3.08;;;9.70;99.90;;;;;;5053581;28;20502;-47
2022/01/28 14:14:34;;;;;;;16.70;2.90;;;9.50;99.90;;;;;;5051905;28;20029;-46
2022/01/28 14:17:08;;;;;;;7.93;1.50;;;9.50;99.90;;;;;;5051791;28;20054;-46
2022/01/28 14:19:36;;;;;;;10.95;2.42;;;9.50;99.90;;;;;;5053183;28;20099;-50
2022/01/28 14:22:03;;;;;;;13.38;2.50;;;9.50;99.90;;;;;;5053046;28;20025;-48
2022/01/28 14:24:31;;;;;;;11.07;2.25;;;9.40;99.90;;;;;;5053647;28;20017;-46
2022/01/28 14:32:05;;;;;;;12.27;2.20;;;9.20;99.90;;;;;;5053133;28;20029;-47
2022/01/28 14:34:31;;;;;;;11.07;2.03;;;9.10;99.90;;;;;;5051900;28;20487;-47
2022/01/28 14:36:57;;;;;;;6.50;1.80;;;9.10;99.90;;;;;;5052936;28;20031;-49
2022/01/28 14:39:24;;;;;;;14.20;2.13;;;9.10;99.90;;;;;;5052955;28;20032;-49
2022/01/28 14:41:50;;;;;;;16.00;3.78;;;9.20;99.90;;;;;;5051974;28;20029;-48
2022/01/28 14:44:17;;;;;;;14.43;2.20;;;9.30;99.90;;;;;;5052892;28;20101;-49
2022/01/28 14:46:44;;;;;;;13.50;3.33;;;9.30;99.90;;;;;;5052848;28;20017;-55
2022/01/28 14:49:09;;;;;;;16.40;3.22;;;9.40;99.90;;;;;;5051597;28;20021;-47